sensor_id;sensor_type;location;lat;lon;timestamp;P1;durP1;ratioP1;P2;durP2;ratioP2
23266;SDS011;11802;53.160;8.214;2023-10-09T00:00:13;6.13;;;3.20;;
23266;SDS011;11802;53.160;8.214;2023-10-09T00:02:59;10.13;;;3.43;;
23266;SDS011;11802;53.160;8.214;2023-10-09T00:05:26;8.07;;;3.30;;
23266;SDS011;11802;53.160;8.214;2023-10-09T00:08:25;13.30;;;3.40;;
23266;SDS011;11802;53.160;8.214;2023-10-09T00:10:58;12.40;;;3.23;;
23266;SDS011;11802;53.160;8.214;2023-10-09T00:13:38;13.00;;;3.60;;
23266;SDS011;11802;53.160;8.214;2023-10-09T00:16:13;6.40;;;2.90;;
23266;SDS011;11802;53.160;8.214;2023-10-09T00:18:48;9.03;;;3.33;;
23266;SDS011;11802;53.160;8.214;2023-10-09T00:21:15;8.97;;;3.47;;
23266;SDS011;11802;53.160;8.214;2023-10-09T00:23:41;10.60;;;3.23;;
23266;SDS011;11802;53.160;8.214;2023-10-09T00:26:07;7.90;;;2.90;;
23266;SDS011;11802;53.160;8.214;2023-10-09T00:28:37;8.90;;;3.20;;
23266;SDS011;11802;53.160;8.214;2023-10-09T00:31:06;8.20;;;3.40;;
23266;SDS011;11802;53.160;8.214;2023-10-09T00:33:33;15.97;;;3.60;;
23266;SDS011;11802;53.160;8.214;2023-10-09T00:36:03;9.50;;;3.20;;
23266;SDS011;11802;53.160;8.214;2023-10-09T00:38:36;8.23;;;3.00;;
23266;SDS011;11802;53.160;8.214;2023-10-09T00:41:04;9.97;;;3.70;;
23266;SDS011;11802;53.160;8.214;2023-10-09T00:43:36;7.63;;;3.13;;
23266;SDS011;11802;53.160;8.214;2023-10-09T00:46:02;7.57;;;3.47;;
23266;SDS011;11802;53.160;8.214;2023-10-09T00:48:48;11.97;;;3.70;;
23266;SDS011;11802;53.160;8.214;2023-10-09T00:51:16;9.50;;;3.50;;
23266;SDS011;11802;53.160;8.214;2023-10-09T00:53:47;15.47;;;3.80;;
23266;SDS011;11802;53.160;8.214;2023-10-09T00:56:16;9.67;;;3.40;;
23266;SDS011;11802;53.160;8.214;2023-10-09T00:59:07;13.17;;;4.00;;
23266;SDS011;11802;53.160;8.214;2023-10-09T01:01:33;10.10;;;3.73;;
23266;SDS011;11802;53.160;8.214;2023-10-09T01:04:04;7.50;;;3.90;;
23266;SDS011;11802;53.160;8.214;2023-10-09T01:06:40;10.97;;;4.43;;
23266;SDS011;11802;53.160;8.214;2023-10-09T01:09:11;14.00;;;4.47;;
23266;SDS011;11802;53.160;8.214;2023-10-09T01:11:40;10.23;;;4.00;;
23266;SDS011;11802;53.160;8.214;2023-10-09T01:14:24;12.37;;;4.27;;
23266;SDS011;11802;53.160;8.214;2023-10-09T01:16:50;9.47;;;3.77;;
23266;SDS011;11802;53.160;8.214;2023-10-09T01:19:19;9.47;;;3.83;;
23266;SDS011;11802;53.160;8.214;2023-10-09T01:21:52;8.43;;;3.93;;
23266;SDS011;11802;53.160;8.214;2023-10-09T01:24:18;9.50;;;4.20;;
23266;SDS011;11802;53.160;8.214;2023-10-09T01:26:45;9.43;;;4.53;;
23266;SDS011;11802;53.160;8.214;2023-10-09T01:31:46;9.03;;;3.70;;
23266;SDS011;11802;53.160;8.214;2023-10-09T01:34:35;12.67;;;4.20;;
23266;SDS011;11802;53.160;8.214;2023-10-09T01:37:08;10.33;;;4.17;;
23266;SDS011;11802;53.160;8.214;2023-10-09T01:39:45;7.03;;;4.20;;
23266;SDS011;11802;53.160;8.214;2023-10-09T01:42:13;9.53;;;3.93;;
23266;SDS011;11802;53.160;8.214;2023-10-09T01:44:49;8.33;;;4.10;;
23266;SDS011;11802;53.160;8.214;2023-10-09T01:47:15;12.80;;;4.27;;
23266;SDS011;11802;53.160;8.214;2023-10-09T01:49:43;9.93;;;4.53;;
23266;SDS011;11802;53.160;8.214;2023-10-09T01:52:14;12.50;;;4.93;;
23266;SDS011;11802;53.160;8.214;2023-10-09T01:54:41;9.20;;;4.67;;
23266;SDS011;11802;53.160;8.214;2023-10-09T01:57:14;11.97;;;4.67;;
23266;SDS011;11802;53.160;8.214;2023-10-09T01:59:42;7.40;;;4.23;;
23266;SDS011;11802;53.160;8.214;2023-10-09T02:02:15;7.20;;;4.10;;
23266;SDS011;11802;53.160;8.214;2023-10-09T02:04:57;7.97;;;4.00;;
23266;SDS011;11802;53.160;8.214;2023-10-09T02:07:39;8.67;;;4.10;;
23266;SDS011;11802;53.160;8.214;2023-10-09T02:10:09;10.97;;;4.37;;
23266;SDS011;11802;53.160;8.214;2023-10-09T02:12:50;11.33;;;4.53;;
23266;SDS011;11802;53.160;8.214;2023-10-09T02:15:23;9.67;;;4.37;;
23266;SDS011;11802;53.160;8.214;2023-10-09T02:18:08;8.63;;;4.33;;
23266;SDS011;11802;53.160;8.214;2023-10-09T02:20:44;9.00;;;4.33;;
23266;SDS011;11802;53.160;8.214;2023-10-09T02:23:11;10.07;;;4.77;;
23266;SDS011;11802;53.160;8.214;2023-10-09T02:25:58;9.67;;;4.20;;
23266;SDS011;11802;53.160;8.214;2023-10-09T02:28:31;7.90;;;4.17;;
23266;SDS011;11802;53.160;8.214;2023-10-09T02:30:58;11.23;;;4.23;;
23266;SDS011;11802;53.160;8.214;2023-10-09T02:33:34;10.53;;;4.87;;
23266;SDS011;11802;53.160;8.214;2023-10-09T02:36:01;9.77;;;4.77;;
23266;SDS011;11802;53.160;8.214;2023-10-09T02:38:31;9.43;;;4.27;;
23266;SDS011;11802;53.160;8.214;2023-10-09T02:41:02;11.20;;;5.00;;
23266;SDS011;11802;53.160;8.214;2023-10-09T02:43:31;7.10;;;3.93;;
23266;SDS011;11802;53.160;8.214;2023-10-09T02:46:11;7.33;;;4.00;;
23266;SDS011;11802;53.160;8.214;2023-10-09T02:48:45;11.80;;;4.37;;
23266;SDS011;11802;53.160;8.214;2023-10-09T02:51:18;9.23;;;4.30;;
23266;SDS011;11802;53.160;8.214;2023-10-09T02:53:51;8.03;;;4.30;;
23266;SDS011;11802;53.160;8.214;2023-10-09T02:56:21;9.03;;;4.23;;
23266;SDS011;11802;53.160;8.214;2023-10-09T02:58:52;7.63;;;3.93;;
23266;SDS011;11802;53.160;8.214;2023-10-09T03:01:30;11.93;;;4.40;;
23266;SDS011;11802;53.160;8.214;2023-10-09T03:03:56;11.33;;;5.13;;
23266;SDS011;11802;53.160;8.214;2023-10-09T03:06:24;14.47;;;4.40;;
23266;SDS011;11802;53.160;8.214;2023-10-09T03:08:56;12.00;;;5.43;;
23266;SDS011;11802;53.160;8.214;2023-10-09T03:11:22;9.73;;;4.73;;
23266;SDS011;11802;53.160;8.214;2023-10-09T03:13:48;11.87;;;4.77;;
23266;SDS011;11802;53.160;8.214;2023-10-09T03:16:14;11.67;;;5.53;;
23266;SDS011;11802;53.160;8.214;2023-10-09T03:18:41;11.07;;;4.83;;
23266;SDS011;11802;53.160;8.214;2023-10-09T03:21:07;12.37;;;5.30;;
23266;SDS011;11802;53.160;8.214;2023-10-09T03:23:33;12.73;;;5.10;;
23266;SDS011;11802;53.160;8.214;2023-10-09T03:25:59;17.17;;;5.73;;
23266;SDS011;11802;53.160;8.214;2023-10-09T03:28:25;11.87;;;5.80;;
23266;SDS011;11802;53.160;8.214;2023-10-09T03:30:51;10.90;;;5.87;;
23266;SDS011;11802;53.160;8.214;2023-10-09T03:33:18;12.43;;;6.27;;
23266;SDS011;11802;53.160;8.214;2023-10-09T03:35:43;10.27;;;5.97;;
23266;SDS011;11802;53.160;8.214;2023-10-09T03:38:09;17.17;;;6.80;;
23266;SDS011;11802;53.160;8.214;2023-10-09T03:40:43;11.87;;;7.03;;
23266;SDS011;11802;53.160;8.214;2023-10-09T03:43:09;14.93;;;6.57;;
23266;SDS011;11802;53.160;8.214;2023-10-09T03:45:38;17.60;;;8.03;;
23266;SDS011;11802;53.160;8.214;2023-10-09T03:48:17;16.43;;;8.07;;
23266;SDS011;11802;53.160;8.214;2023-10-09T03:50:57;19.10;;;7.67;;
23266;SDS011;11802;53.160;8.214;2023-10-09T03:53:38;17.23;;;7.97;;
23266;SDS011;11802;53.160;8.214;2023-10-09T03:56:04;13.60;;;8.00;;
23266;SDS011;11802;53.160;8.214;2023-10-09T03:58:36;13.40;;;7.40;;
23266;SDS011;11802;53.160;8.214;2023-10-09T04:01:06;16.73;;;8.37;;
23266;SDS011;11802;53.160;8.214;2023-10-09T04:03:33;20.13;;;8.83;;
23266;SDS011;11802;53.160;8.214;2023-10-09T04:06:01;21.03;;;9.50;;
23266;SDS011;11802;53.160;8.214;2023-10-09T04:08:29;16.63;;;9.77;;
23266;SDS011;11802;53.160;8.214;2023-10-09T04:10:55;19.53;;;9.20;;
23266;SDS011;11802;53.160;8.214;2023-10-09T04:13:27;17.07;;;9.13;;
23266;SDS011;11802;53.160;8.214;2023-10-09T04:15:59;22.37;;;10.03;;
23266;SDS011;11802;53.160;8.214;2023-10-09T04:18:34;24.70;;;11.50;;
23266;SDS011;11802;53.160;8.214;2023-10-09T04:21:03;24.97;;;10.47;;
23266;SDS011;11802;53.160;8.214;2023-10-09T04:23:53;24.10;;;11.03;;
23266;SDS011;11802;53.160;8.214;2023-10-09T04:26:36;24.77;;;11.33;;
23266;SDS011;11802;53.160;8.214;2023-10-09T04:29:05;20.70;;;11.00;;
23266;SDS011;11802;53.160;8.214;2023-10-09T04:31:31;23.47;;;11.30;;
23266;SDS011;11802;53.160;8.214;2023-10-09T04:34:02;21.63;;;11.70;;
23266;SDS011;11802;53.160;8.214;2023-10-09T04:36:54;22.97;;;12.20;;
23266;SDS011;11802;53.160;8.214;2023-10-09T04:39:47;22.80;;;11.87;;
23266;SDS011;11802;53.160;8.214;2023-10-09T04:42:13;21.17;;;10.70;;
23266;SDS011;11802;53.160;8.214;2023-10-09T04:44:48;27.03;;;12.87;;
23266;SDS011;11802;53.160;8.214;2023-10-09T04:47:33;23.23;;;12.37;;
23266;SDS011;11802;53.160;8.214;2023-10-09T04:50:06;24.57;;;12.37;;
23266;SDS011;11802;53.160;8.214;2023-10-09T04:52:51;27.67;;;13.97;;
23266;SDS011;11802;53.160;8.214;2023-10-09T04:55:17;28.93;;;14.67;;
23266;SDS011;11802;53.160;8.214;2023-10-09T04:57:45;27.47;;;14.33;;
23266;SDS011;11802;53.160;8.214;2023-10-09T05:00:18;26.77;;;13.20;;
23266;SDS011;11802;53.160;8.214;2023-10-09T05:02:50;28.17;;;14.93;;
23266;SDS011;11802;53.160;8.214;2023-10-09T05:05:26;32.67;;;15.40;;
23266;SDS011;11802;53.160;8.214;2023-10-09T05:08:14;34.93;;;16.17;;
23266;SDS011;11802;53.160;8.214;2023-10-09T05:10:44;34.10;;;16.13;;
23266;SDS011;11802;53.160;8.214;2023-10-09T05:13:30;38.33;;;17.30;;
23266;SDS011;11802;53.160;8.214;2023-10-09T05:18:40;38.63;;;18.87;;
23266;SDS011;11802;53.160;8.214;2023-10-09T05:21:07;40.00;;;19.57;;
23266;SDS011;11802;53.160;8.214;2023-10-09T05:23:41;38.00;;;18.27;;
23266;SDS011;11802;53.160;8.214;2023-10-09T05:26:13;38.97;;;17.90;;
23266;SDS011;11802;53.160;8.214;2023-10-09T05:29:02;46.40;;;20.77;;
23266;SDS011;11802;53.160;8.214;2023-10-09T05:31:44;42.47;;;19.50;;
23266;SDS011;11802;53.160;8.214;2023-10-09T05:34:33;41.77;;;19.23;;
23266;SDS011;11802;53.160;8.214;2023-10-09T05:37:02;50.10;;;21.80;;
23266;SDS011;11802;53.160;8.214;2023-10-09T05:39:47;50.60;;;22.80;;
23266;SDS011;11802;53.160;8.214;2023-10-09T05:42:26;50.27;;;22.60;;
23266;SDS011;11802;53.160;8.214;2023-10-09T05:47:45;49.73;;;23.40;;
23266;SDS011;11802;53.160;8.214;2023-10-09T05:50:31;58.10;;;24.83;;
23266;SDS011;11802;53.160;8.214;2023-10-09T05:52:57;54.97;;;26.03;;
23266;SDS011;11802;53.160;8.214;2023-10-09T05:55:30;60.27;;;26.13;;
23266;SDS011;11802;53.160;8.214;2023-10-09T05:58:14;56.13;;;26.60;;
23266;SDS011;11802;53.160;8.214;2023-10-09T06:01:00;59.40;;;27.70;;
23266;SDS011;11802;53.160;8.214;2023-10-09T06:03:55;47.90;;;21.83;;
23266;SDS011;11802;53.160;8.214;2023-10-09T06:06:29;59.40;;;27.70;;
23266;SDS011;11802;53.160;8.214;2023-10-09T06:09:07;61.37;;;27.30;;
23266;SDS011;11802;53.160;8.214;2023-10-09T06:11:55;53.73;;;25.63;;
23266;SDS011;11802;53.160;8.214;2023-10-09T06:14:41;49.23;;;23.93;;
23266;SDS011;11802;53.160;8.214;2023-10-09T06:17:25;51.57;;;26.43;;
23266;SDS011;11802;53.160;8.214;2023-10-09T06:19:56;52.20;;;26.80;;
23266;SDS011;11802;53.160;8.214;2023-10-09T06:22:44;57.17;;;28.30;;
23266;SDS011;11802;53.160;8.214;2023-10-09T06:25:22;53.00;;;26.67;;
23266;SDS011;11802;53.160;8.214;2023-10-09T06:27:57;60.90;;;29.60;;
23266;SDS011;11802;53.160;8.214;2023-10-09T06:30:23;59.27;;;28.50;;
23266;SDS011;11802;53.160;8.214;2023-10-09T06:32:49;51.33;;;25.33;;
23266;SDS011;11802;53.160;8.214;2023-10-09T06:35:16;61.17;;;28.17;;
23266;SDS011;11802;53.160;8.214;2023-10-09T06:37:58;47.10;;;24.43;;
23266;SDS011;11802;53.160;8.214;2023-10-09T06:40:34;51.57;;;26.43;;
23266;SDS011;11802;53.160;8.214;2023-10-09T06:43:39;49.00;;;23.70;;
23266;SDS011;11802;53.160;8.214;2023-10-09T06:46:18;45.47;;;23.33;;
23266;SDS011;11802;53.160;8.214;2023-10-09T06:48:49;57.53;;;27.73;;
23266;SDS011;11802;53.160;8.214;2023-10-09T06:51:21;49.80;;;23.30;;
23266;SDS011;11802;53.160;8.214;2023-10-09T06:53:50;54.93;;;26.03;;
23266;SDS011;11802;53.160;8.214;2023-10-09T06:56:22;55.77;;;26.67;;
23266;SDS011;11802;53.160;8.214;2023-10-09T06:59:08;56.80;;;28.67;;
23266;SDS011;11802;53.160;8.214;2023-10-09T07:01:46;52.63;;;26.87;;
23266;SDS011;11802;53.160;8.214;2023-10-09T07:04:34;58.33;;;27.80;;
23266;SDS011;11802;53.160;8.214;2023-10-09T07:07:00;51.30;;;26.43;;
23266;SDS011;11802;53.160;8.214;2023-10-09T07:09:27;62.00;;;29.27;;
23266;SDS011;11802;53.160;8.214;2023-10-09T07:12:07;57.87;;;28.23;;
23266;SDS011;11802;53.160;8.214;2023-10-09T07:14:38;54.70;;;26.73;;
23266;SDS011;11802;53.160;8.214;2023-10-09T07:17:04;53.13;;;27.07;;
23266;SDS011;11802;53.160;8.214;2023-10-09T07:19:50;50.07;;;25.53;;
23266;SDS011;11802;53.160;8.214;2023-10-09T07:22:16;58.47;;;29.70;;
23266;SDS011;11802;53.160;8.214;2023-10-09T07:24:48;60.83;;;30.17;;
23266;SDS011;11802;53.160;8.214;2023-10-09T07:27:20;44.93;;;22.60;;
23266;SDS011;11802;53.160;8.214;2023-10-09T07:30:24;52.20;;;28.00;;
23266;SDS011;11802;53.160;8.214;2023-10-09T07:35:30;51.47;;;25.07;;
23266;SDS011;11802;53.160;8.214;2023-10-09T07:38:18;56.27;;;28.43;;
23266;SDS011;11802;53.160;8.214;2023-10-09T07:41:04;43.50;;;21.97;;
23266;SDS011;11802;53.160;8.214;2023-10-09T07:44:12;50.27;;;25.70;;
23266;SDS011;11802;53.160;8.214;2023-10-09T07:46:44;48.13;;;26.07;;
23266;SDS011;11802;53.160;8.214;2023-10-09T07:49:33;53.77;;;27.50;;
23266;SDS011;11802;53.160;8.214;2023-10-09T07:52:02;55.43;;;28.50;;
23266;SDS011;11802;53.160;8.214;2023-10-09T07:54:31;40.10;;;22.43;;
23266;SDS011;11802;53.160;8.214;2023-10-09T07:56:57;40.97;;;21.47;;
23266;SDS011;11802;53.160;8.214;2023-10-09T07:59:34;49.93;;;25.27;;
23266;SDS011;11802;53.160;8.214;2023-10-09T08:02:06;48.37;;;23.23;;
23266;SDS011;11802;53.160;8.214;2023-10-09T08:04:38;40.60;;;21.17;;
23266;SDS011;11802;53.160;8.214;2023-10-09T08:07:16;39.92;;;18.70;;
23266;SDS011;11802;53.160;8.214;2023-10-09T08:09:51;41.70;;;21.40;;
23266;SDS011;11802;53.160;8.214;2023-10-09T08:12:36;41.10;;;22.13;;
23266;SDS011;11802;53.160;8.214;2023-10-09T08:15:12;48.42;;;23.10;;
23266;SDS011;11802;53.160;8.214;2023-10-09T08:20:45;35.10;;;18.35;;
23266;SDS011;11802;53.160;8.214;2023-10-09T08:23:36;41.30;;;22.10;;
23266;SDS011;11802;53.160;8.214;2023-10-09T08:26:18;39.87;;;22.47;;
23266;SDS011;11802;53.160;8.214;2023-10-09T08:29:12;40.22;;;22.08;;
23266;SDS011;11802;53.160;8.214;2023-10-09T08:31:45;35.92;;;18.95;;
23266;SDS011;11802;53.160;8.214;2023-10-09T08:37:28;40.97;;;21.23;;
23266;SDS011;11802;53.160;8.214;2023-10-09T08:43:18;35.47;;;19.30;;
23266;SDS011;11802;53.160;8.214;2023-10-09T08:46:09;38.15;;;23.75;;
23266;SDS011;11802;53.160;8.214;2023-10-09T08:48:38;33.75;;;20.48;;
23266;SDS011;11802;53.160;8.214;2023-10-09T08:51:04;38.35;;;20.65;;
23266;SDS011;11802;53.160;8.214;2023-10-09T08:53:31;39.42;;;22.25;;
23266;SDS011;11802;53.160;8.214;2023-10-09T08:55:58;34.50;;;17.50;;
23266;SDS011;11802;53.160;8.214;2023-10-09T08:58:26;40.13;;;20.67;;
23266;SDS011;11802;53.160;8.214;2023-10-09T09:01:00;34.97;;;17.92;;
23266;SDS011;11802;53.160;8.214;2023-10-09T09:03:37;36.72;;;18.80;;
23266;SDS011;11802;53.160;8.214;2023-10-09T09:13:16;26.42;;;14.50;;
23266;SDS011;11802;53.160;8.214;2023-10-09T09:16:40;34.38;;;19.73;;
23266;SDS011;11802;53.160;8.214;2023-10-09T09:19:09;23.80;;;14.85;;
23266;SDS011;11802;53.160;8.214;2023-10-09T09:21:41;27.17;;;16.98;;
23266;SDS011;11802;53.160;8.214;2023-10-09T09:24:13;39.40;;;17.58;;
23266;SDS011;11802;53.160;8.214;2023-10-09T09:26:56;38.75;;;21.98;;
23266;SDS011;11802;53.160;8.214;2023-10-09T09:29:47;32.95;;;17.70;;
23266;SDS011;11802;53.160;8.214;2023-10-09T09:32:29;24.92;;;13.43;;
23266;SDS011;11802;53.160;8.214;2023-10-09T09:35:03;31.67;;;17.08;;
23266;SDS011;11802;53.160;8.214;2023-10-09T09:40:52;30.27;;;16.60;;
23266;SDS011;11802;53.160;8.214;2023-10-09T09:43:20;23.98;;;14.63;;
23266;SDS011;11802;53.160;8.214;2023-10-09T09:45:47;28.67;;;15.40;;
23266;SDS011;11802;53.160;8.214;2023-10-09T09:48:18;26.40;;;14.63;;
23266;SDS011;11802;53.160;8.214;2023-10-09T09:50:44;24.23;;;13.60;;
23266;SDS011;11802;53.160;8.214;2023-10-09T09:53:13;28.20;;;14.68;;
23266;SDS011;11802;53.160;8.214;2023-10-09T09:55:49;24.73;;;13.80;;
23266;SDS011;11802;53.160;8.214;2023-10-09T09:58:22;24.83;;;11.85;;
23266;SDS011;11802;53.160;8.214;2023-10-09T10:01:07;26.23;;;12.80;;
23266;SDS011;11802;53.160;8.214;2023-10-09T10:04:11;28.33;;;13.70;;
23266;SDS011;11802;53.160;8.214;2023-10-09T10:06:45;25.92;;;13.82;;
23266;SDS011;11802;53.160;8.214;2023-10-09T10:12:13;23.55;;;12.98;;
23266;SDS011;11802;53.160;8.214;2023-10-09T10:14:52;20.67;;;11.15;;
23266;SDS011;11802;53.160;8.214;2023-10-09T10:17:27;21.02;;;12.65;;
23266;SDS011;11802;53.160;8.214;2023-10-09T10:20:01;24.65;;;12.23;;
23266;SDS011;11802;53.160;8.214;2023-10-09T10:22:42;21.10;;;11.20;;
23266;SDS011;11802;53.160;8.214;2023-10-09T10:25:32;22.02;;;11.88;;
23266;SDS011;11802;53.160;8.214;2023-10-09T10:31:11;26.08;;;12.73;;
23266;SDS011;11802;53.160;8.214;2023-10-09T10:36:36;22.77;;;11.48;;
23266;SDS011;11802;53.160;8.214;2023-10-09T10:39:16;23.08;;;11.32;;
23266;SDS011;11802;53.160;8.214;2023-10-09T10:41:52;21.20;;;10.38;;
23266;SDS011;11802;53.160;8.214;2023-10-09T10:44:31;17.65;;;9.75;;
23266;SDS011;11802;53.160;8.214;2023-10-09T10:47:11;22.38;;;10.93;;
23266;SDS011;11802;53.160;8.214;2023-10-09T10:50:01;21.00;;;10.32;;
23266;SDS011;11802;53.160;8.214;2023-10-09T10:52:46;24.10;;;11.20;;
23266;SDS011;11802;53.160;8.214;2023-10-09T10:55:25;21.00;;;9.02;;
23266;SDS011;11802;53.160;8.214;2023-10-09T10:57:56;19.08;;;9.10;;
23266;SDS011;11802;53.160;8.214;2023-10-09T11:00:35;23.33;;;9.88;;
23266;SDS011;11802;53.160;8.214;2023-10-09T11:03:19;19.75;;;9.35;;
23266;SDS011;11802;53.160;8.214;2023-10-09T11:06:00;16.45;;;7.75;;
23266;SDS011;11802;53.160;8.214;2023-10-09T11:08:42;15.32;;;8.50;;
23266;SDS011;11802;53.160;8.214;2023-10-09T11:11:24;16.10;;;7.38;;
23266;SDS011;11802;53.160;8.214;2023-10-09T11:14:12;14.05;;;7.22;;
23266;SDS011;11802;53.160;8.214;2023-10-09T11:17:05;9.73;;;5.47;;
23266;SDS011;11802;53.160;8.214;2023-10-09T11:23:01;8.85;;;4.90;;
23266;SDS011;11802;53.160;8.214;2023-10-09T11:25:37;8.60;;;5.00;;
23266;SDS011;11802;53.160;8.214;2023-10-09T11:28:19;8.45;;;4.22;;
23266;SDS011;11802;53.160;8.214;2023-10-09T11:30:58;6.85;;;3.92;;
23266;SDS011;11802;53.160;8.214;2023-10-09T11:33:50;7.55;;;3.60;;
23266;SDS011;11802;53.160;8.214;2023-10-09T11:36:20;8.13;;;4.13;;
23266;SDS011;11802;53.160;8.214;2023-10-09T11:38:56;6.82;;;3.20;;
23266;SDS011;11802;53.160;8.214;2023-10-09T11:41:41;5.70;;;3.22;;
23266;SDS011;11802;53.160;8.214;2023-10-09T11:44:07;6.20;;;3.03;;
23266;SDS011;11802;53.160;8.214;2023-10-09T11:46:56;6.65;;;3.30;;
23266;SDS011;11802;53.160;8.214;2023-10-09T11:49:23;4.85;;;2.80;;
23266;SDS011;11802;53.160;8.214;2023-10-09T11:52:05;6.50;;;2.85;;
23266;SDS011;11802;53.160;8.214;2023-10-09T11:54:37;5.43;;;2.42;;
23266;SDS011;11802;53.160;8.214;2023-10-09T11:57:03;7.03;;;2.88;;
23266;SDS011;11802;53.160;8.214;2023-10-09T11:59:29;6.80;;;3.10;;
23266;SDS011;11802;53.160;8.214;2023-10-09T12:02:05;5.43;;;2.53;;
23266;SDS011;11802;53.160;8.214;2023-10-09T12:04:36;5.22;;;2.70;;
23266;SDS011;11802;53.160;8.214;2023-10-09T12:07:02;7.18;;;3.60;;
23266;SDS011;11802;53.160;8.214;2023-10-09T12:09:38;6.40;;;3.05;;
23266;SDS011;11802;53.160;8.214;2023-10-09T12:12:06;6.38;;;3.08;;
23266;SDS011;11802;53.160;8.214;2023-10-09T12:14:34;7.65;;;3.47;;
23266;SDS011;11802;53.160;8.214;2023-10-09T12:17:00;8.77;;;2.95;;
23266;SDS011;11802;53.160;8.214;2023-10-09T12:19:33;5.47;;;2.97;;
23266;SDS011;11802;53.160;8.214;2023-10-09T12:22:07;7.80;;;3.35;;
23266;SDS011;11802;53.160;8.214;2023-10-09T12:24:41;6.65;;;2.65;;
23266;SDS011;11802;53.160;8.214;2023-10-09T12:27:08;6.32;;;2.83;;
23266;SDS011;11802;53.160;8.214;2023-10-09T12:29:36;7.18;;;2.67;;
23266;SDS011;11802;53.160;8.214;2023-10-09T12:32:02;8.93;;;3.00;;
23266;SDS011;11802;53.160;8.214;2023-10-09T12:34:28;8.80;;;2.83;;
23266;SDS011;11802;53.160;8.214;2023-10-09T12:36:59;10.32;;;3.38;;
23266;SDS011;11802;53.160;8.214;2023-10-09T12:39:27;10.75;;;3.80;;
23266;SDS011;11802;53.160;8.214;2023-10-09T12:42:01;8.30;;;3.15;;
23266;SDS011;11802;53.160;8.214;2023-10-09T12:44:33;10.48;;;3.20;;
23266;SDS011;11802;53.160;8.214;2023-10-09T12:47:04;7.75;;;2.92;;
23266;SDS011;11802;53.160;8.214;2023-10-09T12:49:31;8.68;;;3.28;;
23266;SDS011;11802;53.160;8.214;2023-10-09T12:51:56;12.45;;;2.78;;
23266;SDS011;11802;53.160;8.214;2023-10-09T12:54:24;9.93;;;3.50;;
23266;SDS011;11802;53.160;8.214;2023-10-09T12:56:55;7.40;;;2.83;;
23266;SDS011;11802;53.160;8.214;2023-10-09T12:59:23;16.15;;;3.25;;
23266;SDS011;11802;53.160;8.214;2023-10-09T13:01:49;7.97;;;2.72;;
23266;SDS011;11802;53.160;8.214;2023-10-09T13:04:18;11.60;;;3.67;;
23266;SDS011;11802;53.160;8.214;2023-10-09T13:06:47;6.88;;;2.80;;
23266;SDS011;11802;53.160;8.214;2023-10-09T13:09:16;12.68;;;3.72;;
23266;SDS011;11802;53.160;8.214;2023-10-09T13:11:50;9.55;;;3.35;;
23266;SDS011;11802;53.160;8.214;2023-10-09T13:14:16;7.15;;;3.10;;
23266;SDS011;11802;53.160;8.214;2023-10-09T13:16:48;9.48;;;3.40;;
23266;SDS011;11802;53.160;8.214;2023-10-09T13:19:21;14.00;;;3.28;;
23266;SDS011;11802;53.160;8.214;2023-10-09T13:21:49;8.13;;;3.10;;
23266;SDS011;11802;53.160;8.214;2023-10-09T13:24:15;12.65;;;3.65;;
23266;SDS011;11802;53.160;8.214;2023-10-09T13:26:44;13.25;;;3.05;;
23266;SDS011;11802;53.160;8.214;2023-10-09T13:29:11;8.48;;;3.45;;
23266;SDS011;11802;53.160;8.214;2023-10-09T13:31:38;13.13;;;3.60;;
23266;SDS011;11802;53.160;8.214;2023-10-09T13:34:11;11.13;;;3.05;;
23266;SDS011;11802;53.160;8.214;2023-10-09T13:36:40;15.45;;;3.38;;
23266;SDS011;11802;53.160;8.214;2023-10-09T13:39:10;15.77;;;3.35;;
23266;SDS011;11802;53.160;8.214;2023-10-09T13:41:55;11.50;;;2.83;;
23266;SDS011;11802;53.160;8.214;2023-10-09T13:44:28;18.95;;;3.10;;
23266;SDS011;11802;53.160;8.214;2023-10-09T13:46:54;10.93;;;2.88;;
23266;SDS011;11802;53.160;8.214;2023-10-09T13:49:21;11.45;;;3.22;;
23266;SDS011;11802;53.160;8.214;2023-10-09T13:51:48;7.90;;;2.72;;
23266;SDS011;11802;53.160;8.214;2023-10-09T13:54:18;14.68;;;3.17;;
23266;SDS011;11802;53.160;8.214;2023-10-09T13:56:48;8.85;;;3.63;;
23266;SDS011;11802;53.160;8.214;2023-10-09T13:59:29;11.20;;;2.78;;
23266;SDS011;11802;53.160;8.214;2023-10-09T14:01:55;14.25;;;3.47;;
23266;SDS011;11802;53.160;8.214;2023-10-09T14:04:21;11.38;;;2.88;;
23266;SDS011;11802;53.160;8.214;2023-10-09T14:06:48;14.90;;;3.33;;
23266;SDS011;11802;53.160;8.214;2023-10-09T14:09:16;13.18;;;3.53;;
23266;SDS011;11802;53.160;8.214;2023-10-09T14:12:02;10.73;;;2.90;;
23266;SDS011;11802;53.160;8.214;2023-10-09T14:14:33;11.15;;;3.05;;
23266;SDS011;11802;53.160;8.214;2023-10-09T14:17:03;13.35;;;2.92;;
23266;SDS011;11802;53.160;8.214;2023-10-09T14:19:36;13.05;;;3.17;;
23266;SDS011;11802;53.160;8.214;2023-10-09T14:22:11;10.48;;;3.35;;
23266;SDS011;11802;53.160;8.214;2023-10-09T14:24:40;9.90;;;2.63;;
23266;SDS011;11802;53.160;8.214;2023-10-09T14:27:09;10.23;;;3.55;;
23266;SDS011;11802;53.160;8.214;2023-10-09T14:29:40;13.55;;;3.22;;
23266;SDS011;11802;53.160;8.214;2023-10-09T14:32:07;7.82;;;2.50;;
23266;SDS011;11802;53.160;8.214;2023-10-09T14:34:38;9.32;;;3.08;;
23266;SDS011;11802;53.160;8.214;2023-10-09T14:37:08;7.03;;;2.63;;
23266;SDS011;11802;53.160;8.214;2023-10-09T14:39:36;6.90;;;2.58;;
23266;SDS011;11802;53.160;8.214;2023-10-09T14:42:03;11.13;;;3.53;;
23266;SDS011;11802;53.160;8.214;2023-10-09T14:44:34;8.55;;;3.28;;
23266;SDS011;11802;53.160;8.214;2023-10-09T14:47:02;10.18;;;2.55;;
23266;SDS011;11802;53.160;8.214;2023-10-09T14:49:30;9.70;;;2.95;;
23266;SDS011;11802;53.160;8.214;2023-10-09T14:52:02;8.10;;;2.30;;
23266;SDS011;11802;53.160;8.214;2023-10-09T14:54:28;13.20;;;2.88;;
23266;SDS011;11802;53.160;8.214;2023-10-09T14:56:54;8.68;;;2.10;;
23266;SDS011;11802;53.160;8.214;2023-10-09T14:59:19;8.55;;;2.38;;
23266;SDS011;11802;53.160;8.214;2023-10-09T15:01:47;8.75;;;2.22;;
23266;SDS011;11802;53.160;8.214;2023-10-09T15:04:15;13.05;;;3.25;;
23266;SDS011;11802;53.160;8.214;2023-10-09T15:06:41;10.13;;;2.60;;
23266;SDS011;11802;53.160;8.214;2023-10-09T15:09:06;8.00;;;2.30;;
23266;SDS011;11802;53.160;8.214;2023-10-09T15:11:46;11.20;;;2.55;;
23266;SDS011;11802;53.160;8.214;2023-10-09T15:14:13;8.40;;;2.30;;
23266;SDS011;11802;53.160;8.214;2023-10-09T15:16:39;6.65;;;2.20;;
23266;SDS011;11802;53.160;8.214;2023-10-09T15:19:07;11.70;;;2.22;;
23266;SDS011;11802;53.160;8.214;2023-10-09T15:21:35;5.80;;;2.10;;
23266;SDS011;11802;53.160;8.214;2023-10-09T15:24:08;12.57;;;2.95;;
23266;SDS011;11802;53.160;8.214;2023-10-09T15:26:40;8.30;;;2.30;;
23266;SDS011;11802;53.160;8.214;2023-10-09T15:29:18;7.93;;;2.22;;
23266;SDS011;11802;53.160;8.214;2023-10-09T15:31:48;8.00;;;2.17;;
23266;SDS011;11802;53.160;8.214;2023-10-09T15:34:15;7.05;;;1.90;;
23266;SDS011;11802;53.160;8.214;2023-10-09T15:36:43;6.50;;;1.98;;
23266;SDS011;11802;53.160;8.214;2023-10-09T15:39:11;7.85;;;2.30;;
23266;SDS011;11802;53.160;8.214;2023-10-09T15:41:37;8.00;;;2.22;;
23266;SDS011;11802;53.160;8.214;2023-10-09T15:44:04;10.30;;;2.80;;
23266;SDS011;11802;53.160;8.214;2023-10-09T15:46:31;6.80;;;2.00;;
23266;SDS011;11802;53.160;8.214;2023-10-09T15:48:59;4.68;;;2.22;;
23266;SDS011;11802;53.160;8.214;2023-10-09T15:51:25;8.07;;;2.10;;
23266;SDS011;11802;53.160;8.214;2023-10-09T15:53:55;6.18;;;1.95;;